KMGM/MGM METAR and TAF weather

Enter ICAO airport designator
Station Type Date Time Source
KMGM METAR 2021/01/20 22:53 UTC NOAA

KMGM 202253Z 29003KT 10SM CLR 15/M01 A3024 RMK AO2 SLP240 T01501006


Station Type Date Time Source
KMGM Decoded METAR 2021/01/20 22:53 UTC NOAA

MONTGOMERY DANNELLY FIELD, AL, United States (KMGM) 32-18N 86-24W 63M
Jan 20, 2021 - 05:53 PM EST / 2021.01.20 2253 UTC
Wind: from the WNW (290 degrees) at 3 MPH (3 KT):0
Visibility: 10 mile(s):0
Sky conditions: clear
Temperature: 59.0 F (15.0 C)
Dew Point: 30.9 F (-0.6 C)
Relative Humidity: 34%
Pressure (altimeter): 30.24 in. Hg (1024 hPa)
ob: KMGM 202253Z 29003KT 10SM CLR 15/M01 A3024 RMK AO2 SLP240 T01501006
cycle: 23

Station Type Date Time Source
KMGM TAF 2021/01/20 18:24 UTC NOAA

TAF KMGM 201722Z 2018/2118 34005KT P6SM SCT250 PROB30 2112/2115 4SM -SHRA BR OVC025
FM211500 22005KT P6SM OVC029 PROB30 2115/2118 4SM -SHRA BR OVC015

Example: see airport list